sensor_id;sensor_type;location;lat;lon;timestamp;P1;durP1;ratioP1;P2;durP2;ratioP2
56102;SDS011;41970;48.774;9.280;2023-03-01T00:00:38;13.98;;;10.05;;
56102;SDS011;41970;48.774;9.280;2023-03-01T00:03:03;15.10;;;9.57;;
56102;SDS011;41970;48.774;9.280;2023-03-01T00:05:29;11.63;;;8.93;;
56102;SDS011;41970;48.774;9.280;2023-03-01T00:07:55;12.97;;;11.60;;
56102;SDS011;41970;48.774;9.280;2023-03-01T00:10:20;13.63;;;10.20;;
56102;SDS011;41970;48.774;9.280;2023-03-01T00:12:46;14.17;;;9.93;;
56102;SDS011;41970;48.774;9.280;2023-03-01T00:15:12;19.33;;;11.10;;
56102;SDS011;41970;48.774;9.280;2023-03-01T00:17:38;10.83;;;8.30;;
56102;SDS011;41970;48.774;9.280;2023-03-01T00:20:03;12.80;;;10.67;;
56102;SDS011;41970;48.774;9.280;2023-03-01T00:22:35;15.02;;;10.48;;
56102;SDS011;41970;48.774;9.280;2023-03-01T00:25:02;13.68;;;11.15;;
56102;SDS011;41970;48.774;9.280;2023-03-01T00:27:28;13.15;;;9.80;;
56102;SDS011;41970;48.774;9.280;2023-03-01T00:29:54;13.83;;;9.87;;
56102;SDS011;41970;48.774;9.280;2023-03-01T00:32:19;15.47;;;9.70;;
56102;SDS011;41970;48.774;9.280;2023-03-01T00:34:45;12.67;;;10.03;;
56102;SDS011;41970;48.774;9.280;2023-03-01T00:37:20;15.23;;;10.10;;
56102;SDS011;41970;48.774;9.280;2023-03-01T00:39:46;14.10;;;11.20;;
56102;SDS011;41970;48.774;9.280;2023-03-01T00:42:13;12.95;;;10.75;;
56102;SDS011;41970;48.774;9.280;2023-03-01T00:44:39;13.17;;;9.60;;
56102;SDS011;41970;48.774;9.280;2023-03-01T00:47:05;15.30;;;9.40;;
56102;SDS011;41970;48.774;9.280;2023-03-01T00:49:30;14.07;;;9.93;;
56102;SDS011;41970;48.774;9.280;2023-03-01T00:51:56;14.67;;;10.30;;
56102;SDS011;41970;48.774;9.280;2023-03-01T00:54:22;16.70;;;10.43;;
56102;SDS011;41970;48.774;9.280;2023-03-01T00:56:48;13.03;;;10.20;;
56102;SDS011;41970;48.774;9.280;2023-03-01T00:59:13;16.03;;;9.60;;
56102;SDS011;41970;48.774;9.280;2023-03-01T01:01:39;15.83;;;9.93;;
56102;SDS011;41970;48.774;9.280;2023-03-01T01:04:06;16.33;;;10.40;;
56102;SDS011;41970;48.774;9.280;2023-03-01T01:06:38;12.00;;;9.68;;
56102;SDS011;41970;48.774;9.280;2023-03-01T01:09:10;12.38;;;10.32;;
56102;SDS011;41970;48.774;9.280;2023-03-01T01:11:47;14.43;;;11.60;;
56102;SDS011;41970;48.774;9.280;2023-03-01T01:14:15;13.45;;;9.50;;
56102;SDS011;41970;48.774;9.280;2023-03-01T01:16:41;13.70;;;10.18;;
56102;SDS011;41970;48.774;9.280;2023-03-01T01:19:07;12.10;;;9.50;;
56102;SDS011;41970;48.774;9.280;2023-03-01T01:21:33;14.88;;;9.63;;
56102;SDS011;41970;48.774;9.280;2023-03-01T01:23:59;13.67;;;10.57;;
56102;SDS011;41970;48.774;9.280;2023-03-01T01:26:26;14.93;;;10.90;;
56102;SDS011;41970;48.774;9.280;2023-03-01T01:28:54;16.42;;;11.48;;
56102;SDS011;41970;48.774;9.280;2023-03-01T01:31:20;14.90;;;10.77;;
56102;SDS011;41970;48.774;9.280;2023-03-01T01:33:49;15.55;;;11.02;;
56102;SDS011;41970;48.774;9.280;2023-03-01T01:36:15;16.02;;;10.95;;
56102;SDS011;41970;48.774;9.280;2023-03-01T01:38:41;19.42;;;11.02;;
56102;SDS011;41970;48.774;9.280;2023-03-01T01:41:07;15.10;;;10.60;;
56102;SDS011;41970;48.774;9.280;2023-03-01T01:43:41;14.50;;;10.60;;
56102;SDS011;41970;48.774;9.280;2023-03-01T01:46:47;17.30;;;12.43;;
56102;SDS011;41970;48.774;9.280;2023-03-01T01:49:31;15.80;;;10.27;;
56102;SDS011;41970;48.774;9.280;2023-03-01T01:52:02;14.60;;;10.25;;
56102;SDS011;41970;48.774;9.280;2023-03-01T01:57:16;15.38;;;11.88;;
56102;SDS011;41970;48.774;9.280;2023-03-01T01:59:47;14.63;;;11.40;;
56102;SDS011;41970;48.774;9.280;2023-03-01T02:02:17;19.33;;;11.52;;
56102;SDS011;41970;48.774;9.280;2023-03-01T02:04:43;17.23;;;11.40;;
56102;SDS011;41970;48.774;9.280;2023-03-01T02:07:15;19.35;;;12.00;;
56102;SDS011;41970;48.774;9.280;2023-03-01T02:09:52;18.65;;;11.60;;
56102;SDS011;41970;48.774;9.280;2023-03-01T02:12:19;17.38;;;11.75;;
56102;SDS011;41970;48.774;9.280;2023-03-01T02:14:48;16.35;;;10.90;;
56102;SDS011;41970;48.774;9.280;2023-03-01T02:17:14;14.67;;;11.27;;
56102;SDS011;41970;48.774;9.280;2023-03-01T02:22:24;18.27;;;12.40;;
56102;SDS011;41970;48.774;9.280;2023-03-01T02:30:41;16.40;;;11.07;;
56102;SDS011;41970;48.774;9.280;2023-03-01T02:33:27;19.27;;;12.23;;
56102;SDS011;41970;48.774;9.280;2023-03-01T02:35:57;15.00;;;11.93;;
56102;SDS011;41970;48.774;9.280;2023-03-01T02:38:25;16.58;;;11.05;;
56102;SDS011;41970;48.774;9.280;2023-03-01T02:40:52;17.13;;;12.00;;
56102;SDS011;41970;48.774;9.280;2023-03-01T02:43:22;16.55;;;12.95;;
56102;SDS011;41970;48.774;9.280;2023-03-01T02:45:52;15.02;;;10.35;;
56102;SDS011;41970;48.774;9.280;2023-03-01T02:48:22;11.32;;;9.38;;
56102;SDS011;41970;48.774;9.280;2023-03-01T02:53:35;12.88;;;9.45;;
56102;SDS011;41970;48.774;9.280;2023-03-01T02:56:07;18.60;;;13.35;;
56102;SDS011;41970;48.774;9.280;2023-03-01T02:58:38;18.23;;;11.18;;
56102;SDS011;41970;48.774;9.280;2023-03-01T03:01:11;16.83;;;11.68;;
56102;SDS011;41970;48.774;9.280;2023-03-01T03:03:40;15.75;;;11.88;;
56102;SDS011;41970;48.774;9.280;2023-03-01T03:06:06;17.73;;;12.95;;
56102;SDS011;41970;48.774;9.280;2023-03-01T03:08:32;19.10;;;12.18;;
56102;SDS011;41970;48.774;9.280;2023-03-01T03:10:58;17.23;;;13.00;;
56102;SDS011;41970;48.774;9.280;2023-03-01T03:13:23;14.67;;;11.73;;
56102;SDS011;41970;48.774;9.280;2023-03-01T03:15:53;16.15;;;11.40;;
56102;SDS011;41970;48.774;9.280;2023-03-01T03:18:20;24.00;;;12.70;;
56102;SDS011;41970;48.774;9.280;2023-03-01T03:20:47;16.35;;;11.20;;
56102;SDS011;41970;48.774;9.280;2023-03-01T03:23:17;13.80;;;10.82;;
56102;SDS011;41970;48.774;9.280;2023-03-01T03:25:45;16.77;;;11.25;;
56102;SDS011;41970;48.774;9.280;2023-03-01T03:28:15;17.08;;;12.70;;
56102;SDS011;41970;48.774;9.280;2023-03-01T03:30:42;18.98;;;11.55;;
56102;SDS011;41970;48.774;9.280;2023-03-01T03:33:10;20.30;;;14.07;;
56102;SDS011;41970;48.774;9.280;2023-03-01T03:35:44;14.57;;;11.50;;
56102;SDS011;41970;48.774;9.280;2023-03-01T03:38:11;16.83;;;11.23;;
56102;SDS011;41970;48.774;9.280;2023-03-01T03:40:51;13.35;;;10.18;;
56102;SDS011;41970;48.774;9.280;2023-03-01T03:43:26;16.20;;;12.20;;
56102;SDS011;41970;48.774;9.280;2023-03-01T03:45:52;19.63;;;13.50;;
56102;SDS011;41970;48.774;9.280;2023-03-01T03:48:19;14.73;;;11.13;;
56102;SDS011;41970;48.774;9.280;2023-03-01T03:50:49;15.55;;;12.27;;
56102;SDS011;41970;48.774;9.280;2023-03-01T03:53:19;24.65;;;12.55;;
56102;SDS011;41970;48.774;9.280;2023-03-01T03:55:45;14.82;;;11.25;;
56102;SDS011;41970;48.774;9.280;2023-03-01T03:58:14;19.85;;;11.95;;
56102;SDS011;41970;48.774;9.280;2023-03-01T04:00:42;13.65;;;10.43;;
56102;SDS011;41970;48.774;9.280;2023-03-01T04:03:10;19.98;;;12.30;;
56102;SDS011;41970;48.774;9.280;2023-03-01T04:05:37;18.27;;;13.10;;
56102;SDS011;41970;48.774;9.280;2023-03-01T04:08:03;18.50;;;12.88;;
56102;SDS011;41970;48.774;9.280;2023-03-01T04:10:34;19.58;;;12.80;;
56102;SDS011;41970;48.774;9.280;2023-03-01T04:13:05;21.20;;;14.00;;
56102;SDS011;41970;48.774;9.280;2023-03-01T04:15:33;15.88;;;12.30;;
56102;SDS011;41970;48.774;9.280;2023-03-01T04:17:59;19.38;;;12.38;;
56102;SDS011;41970;48.774;9.280;2023-03-01T04:20:29;12.32;;;9.25;;
56102;SDS011;41970;48.774;9.280;2023-03-01T04:23:07;16.15;;;11.45;;
56102;SDS011;41970;48.774;9.280;2023-03-01T04:25:53;19.92;;;13.68;;
56102;SDS011;41970;48.774;9.280;2023-03-01T04:31:05;16.73;;;11.48;;
56102;SDS011;41970;48.774;9.280;2023-03-01T04:33:43;13.15;;;10.40;;
56102;SDS011;41970;48.774;9.280;2023-03-01T04:36:14;17.20;;;11.65;;
56102;SDS011;41970;48.774;9.280;2023-03-01T04:38:41;15.55;;;11.77;;
56102;SDS011;41970;48.774;9.280;2023-03-01T04:41:08;17.80;;;12.70;;
56102;SDS011;41970;48.774;9.280;2023-03-01T04:43:36;16.80;;;12.05;;
56102;SDS011;41970;48.774;9.280;2023-03-01T04:46:03;17.85;;;12.65;;
56102;SDS011;41970;48.774;9.280;2023-03-01T04:48:31;21.13;;;14.05;;
56102;SDS011;41970;48.774;9.280;2023-03-01T04:51:00;15.93;;;11.45;;
56102;SDS011;41970;48.774;9.280;2023-03-01T04:53:26;15.20;;;13.10;;
56102;SDS011;41970;48.774;9.280;2023-03-01T04:55:53;15.75;;;12.75;;
56102;SDS011;41970;48.774;9.280;2023-03-01T04:58:22;23.00;;;14.55;;
56102;SDS011;41970;48.774;9.280;2023-03-01T05:00:49;20.02;;;12.05;;
56102;SDS011;41970;48.774;9.280;2023-03-01T05:03:14;21.87;;;13.70;;
56102;SDS011;41970;48.774;9.280;2023-03-01T05:05:43;18.13;;;12.07;;
56102;SDS011;41970;48.774;9.280;2023-03-01T05:08:10;18.38;;;12.38;;
56102;SDS011;41970;48.774;9.280;2023-03-01T05:10:42;20.52;;;12.93;;
56102;SDS011;41970;48.774;9.280;2023-03-01T05:13:09;15.30;;;11.30;;
56102;SDS011;41970;48.774;9.280;2023-03-01T05:15:35;19.70;;;13.17;;
56102;SDS011;41970;48.774;9.280;2023-03-01T05:18:01;18.40;;;14.35;;
56102;SDS011;41970;48.774;9.280;2023-03-01T05:20:28;21.05;;;13.52;;
56102;SDS011;41970;48.774;9.280;2023-03-01T05:22:55;19.95;;;13.23;;
56102;SDS011;41970;48.774;9.280;2023-03-01T05:25:23;17.90;;;12.85;;
56102;SDS011;41970;48.774;9.280;2023-03-01T05:27:49;22.98;;;14.63;;
56102;SDS011;41970;48.774;9.280;2023-03-01T05:30:15;14.60;;;12.20;;
56102;SDS011;41970;48.774;9.280;2023-03-01T05:32:43;18.80;;;12.43;;
56102;SDS011;41970;48.774;9.280;2023-03-01T05:35:11;20.08;;;11.93;;
56102;SDS011;41970;48.774;9.280;2023-03-01T05:37:41;20.02;;;12.93;;
56102;SDS011;41970;48.774;9.280;2023-03-01T05:40:09;17.73;;;12.75;;
56102;SDS011;41970;48.774;9.280;2023-03-01T05:42:45;19.25;;;13.90;;
56102;SDS011;41970;48.774;9.280;2023-03-01T05:45:19;18.10;;;12.90;;
56102;SDS011;41970;48.774;9.280;2023-03-01T05:47:46;16.77;;;11.93;;
56102;SDS011;41970;48.774;9.280;2023-03-01T05:50:14;16.85;;;11.32;;
56102;SDS011;41970;48.774;9.280;2023-03-01T05:52:44;18.33;;;12.65;;
56102;SDS011;41970;48.774;9.280;2023-03-01T05:55:11;18.08;;;11.57;;
56102;SDS011;41970;48.774;9.280;2023-03-01T05:57:37;16.07;;;12.27;;
56102;SDS011;41970;48.774;9.280;2023-03-01T06:00:03;17.50;;;12.07;;
56102;SDS011;41970;48.774;9.280;2023-03-01T06:02:29;20.85;;;13.43;;
56102;SDS011;41970;48.774;9.280;2023-03-01T06:04:55;22.00;;;15.20;;
56102;SDS011;41970;48.774;9.280;2023-03-01T06:07:20;17.80;;;13.65;;
56102;SDS011;41970;48.774;9.280;2023-03-01T06:09:46;18.63;;;12.63;;
56102;SDS011;41970;48.774;9.280;2023-03-01T06:12:12;18.20;;;12.43;;
56102;SDS011;41970;48.774;9.280;2023-03-01T06:14:38;19.50;;;13.73;;
56102;SDS011;41970;48.774;9.280;2023-03-01T06:17:04;21.05;;;14.02;;
56102;SDS011;41970;48.774;9.280;2023-03-01T06:19:30;15.13;;;12.43;;
56102;SDS011;41970;48.774;9.280;2023-03-01T06:21:56;18.93;;;13.67;;
56102;SDS011;41970;48.774;9.280;2023-03-01T06:24:21;17.43;;;12.40;;
56102;SDS011;41970;48.774;9.280;2023-03-01T06:26:48;18.70;;;13.18;;
56102;SDS011;41970;48.774;9.280;2023-03-01T06:29:13;19.60;;;13.90;;
56102;SDS011;41970;48.774;9.280;2023-03-01T06:31:39;18.97;;;13.90;;
56102;SDS011;41970;48.774;9.280;2023-03-01T06:34:05;16.27;;;11.80;;
56102;SDS011;41970;48.774;9.280;2023-03-01T06:36:31;20.10;;;13.70;;
56102;SDS011;41970;48.774;9.280;2023-03-01T06:38:56;21.20;;;11.90;;
56102;SDS011;41970;48.774;9.280;2023-03-01T06:41:22;14.37;;;12.27;;
56102;SDS011;41970;48.774;9.280;2023-03-01T06:43:48;17.00;;;13.00;;
56102;SDS011;41970;48.774;9.280;2023-03-01T06:46:13;18.93;;;13.70;;
56102;SDS011;41970;48.774;9.280;2023-03-01T06:48:39;19.83;;;12.70;;
56102;SDS011;41970;48.774;9.280;2023-03-01T06:51:05;22.40;;;14.43;;
56102;SDS011;41970;48.774;9.280;2023-03-01T06:53:31;20.37;;;13.37;;
56102;SDS011;41970;48.774;9.280;2023-03-01T06:55:57;26.03;;;14.40;;
56102;SDS011;41970;48.774;9.280;2023-03-01T06:58:25;18.90;;;12.85;;
56102;SDS011;41970;48.774;9.280;2023-03-01T07:00:51;15.48;;;11.98;;
56102;SDS011;41970;48.774;9.280;2023-03-01T07:03:16;20.37;;;13.60;;
56102;SDS011;41970;48.774;9.280;2023-03-01T07:05:42;18.67;;;12.50;;
56102;SDS011;41970;48.774;9.280;2023-03-01T07:08:09;19.80;;;13.30;;
56102;SDS011;41970;48.774;9.280;2023-03-01T07:10:35;19.63;;;15.03;;
56102;SDS011;41970;48.774;9.280;2023-03-01T07:13:01;18.40;;;12.57;;
56102;SDS011;41970;48.774;9.280;2023-03-01T07:15:26;19.20;;;12.93;;
56102;SDS011;41970;48.774;9.280;2023-03-01T07:17:53;19.65;;;13.18;;
56102;SDS011;41970;48.774;9.280;2023-03-01T07:20:19;19.08;;;14.52;;
56102;SDS011;41970;48.774;9.280;2023-03-01T07:22:50;18.73;;;12.68;;
56102;SDS011;41970;48.774;9.280;2023-03-01T07:25:16;22.55;;;14.70;;
56102;SDS011;41970;48.774;9.280;2023-03-01T07:27:42;23.33;;;14.10;;
56102;SDS011;41970;48.774;9.280;2023-03-01T07:30:08;22.93;;;15.87;;
56102;SDS011;41970;48.774;9.280;2023-03-01T07:32:35;19.42;;;13.35;;
56102;SDS011;41970;48.774;9.280;2023-03-01T07:35:01;17.60;;;13.93;;
56102;SDS011;41970;48.774;9.280;2023-03-01T07:37:27;21.45;;;14.05;;
56102;SDS011;41970;48.774;9.280;2023-03-01T07:39:53;22.67;;;14.33;;
56102;SDS011;41970;48.774;9.280;2023-03-01T07:42:19;18.80;;;13.30;;
56102;SDS011;41970;48.774;9.280;2023-03-01T07:44:44;20.07;;;14.37;;
56102;SDS011;41970;48.774;9.280;2023-03-01T07:47:10;28.60;;;15.30;;
56102;SDS011;41970;48.774;9.280;2023-03-01T07:49:36;17.17;;;13.50;;
56102;SDS011;41970;48.774;9.280;2023-03-01T07:52:02;21.00;;;15.27;;
56102;SDS011;41970;48.774;9.280;2023-03-01T07:54:27;19.60;;;13.90;;
56102;SDS011;41970;48.774;9.280;2023-03-01T07:56:53;21.40;;;16.90;;
56102;SDS011;41970;48.774;9.280;2023-03-01T07:59:19;21.92;;;14.10;;
56102;SDS011;41970;48.774;9.280;2023-03-01T08:01:45;19.20;;;14.53;;
56102;SDS011;41970;48.774;9.280;2023-03-01T08:04:11;17.07;;;12.87;;
56102;SDS011;41970;48.774;9.280;2023-03-01T08:06:36;21.47;;;13.37;;
56102;SDS011;41970;48.774;9.280;2023-03-01T08:09:02;17.63;;;14.30;;
56102;SDS011;41970;48.774;9.280;2023-03-01T08:11:28;17.33;;;13.13;;
56102;SDS011;41970;48.774;9.280;2023-03-01T08:13:54;15.57;;;12.70;;
56102;SDS011;41970;48.774;9.280;2023-03-01T08:16:20;13.50;;;11.73;;
56102;SDS011;41970;48.774;9.280;2023-03-01T08:18:45;16.40;;;13.77;;
56102;SDS011;41970;48.774;9.280;2023-03-01T08:21:12;18.03;;;15.37;;
56102;SDS011;41970;48.774;9.280;2023-03-01T08:23:42;16.37;;;14.10;;
56102;SDS011;41970;48.774;9.280;2023-03-01T08:26:16;18.90;;;15.73;;
56102;SDS011;41970;48.774;9.280;2023-03-01T08:28:43;20.63;;;15.93;;
56102;SDS011;41970;48.774;9.280;2023-03-01T08:31:14;15.53;;;13.80;;
56102;SDS011;41970;48.774;9.280;2023-03-01T08:33:42;17.30;;;15.37;;
56102;SDS011;41970;48.774;9.280;2023-03-01T08:36:08;14.13;;;12.73;;
56102;SDS011;41970;48.774;9.280;2023-03-01T08:38:34;17.30;;;15.43;;
56102;SDS011;41970;48.774;9.280;2023-03-01T08:41:01;13.90;;;12.13;;
56102;SDS011;41970;48.774;9.280;2023-03-01T08:43:28;16.57;;;14.77;;
56102;SDS011;41970;48.774;9.280;2023-03-01T08:45:54;14.70;;;13.20;;
56102;SDS011;41970;48.774;9.280;2023-03-01T08:48:20;17.43;;;15.50;;
56102;SDS011;41970;48.774;9.280;2023-03-01T08:50:46;17.07;;;15.23;;
56102;SDS011;41970;48.774;9.280;2023-03-01T08:53:11;18.60;;;15.13;;
56102;SDS011;41970;48.774;9.280;2023-03-01T08:55:37;17.90;;;16.03;;
56102;SDS011;41970;48.774;9.280;2023-03-01T08:58:03;15.53;;;12.87;;
56102;SDS011;41970;48.774;9.280;2023-03-01T09:00:29;14.67;;;13.17;;
56102;SDS011;41970;48.774;9.280;2023-03-01T09:02:54;19.17;;;15.50;;
56102;SDS011;41970;48.774;9.280;2023-03-01T09:05:20;17.43;;;15.37;;
56102;SDS011;41970;48.774;9.280;2023-03-01T09:07:46;17.90;;;14.17;;
56102;SDS011;41970;48.774;9.280;2023-03-01T09:10:11;21.30;;;15.57;;
56102;SDS011;41970;48.774;9.280;2023-03-01T09:12:37;21.07;;;15.67;;
56102;SDS011;41970;48.774;9.280;2023-03-01T09:15:03;16.00;;;14.30;;
56102;SDS011;41970;48.774;9.280;2023-03-01T09:17:29;15.93;;;14.17;;
56102;SDS011;41970;48.774;9.280;2023-03-01T09:19:55;16.77;;;13.80;;
56102;SDS011;41970;48.774;9.280;2023-03-01T09:22:20;20.17;;;16.27;;
56102;SDS011;41970;48.774;9.280;2023-03-01T09:24:46;18.30;;;14.87;;
56102;SDS011;41970;48.774;9.280;2023-03-01T09:27:12;17.17;;;15.13;;
56102;SDS011;41970;48.774;9.280;2023-03-01T09:29:39;17.60;;;15.10;;
56102;SDS011;41970;48.774;9.280;2023-03-01T09:32:05;15.03;;;13.30;;
56102;SDS011;41970;48.774;9.280;2023-03-01T09:34:33;19.30;;;14.30;;
56102;SDS011;41970;48.774;9.280;2023-03-01T09:37:19;17.07;;;14.17;;
56102;SDS011;41970;48.774;9.280;2023-03-01T09:39:44;17.50;;;13.07;;
56102;SDS011;41970;48.774;9.280;2023-03-01T09:42:10;19.37;;;14.33;;
56102;SDS011;41970;48.774;9.280;2023-03-01T09:47:26;17.63;;;13.73;;
56102;SDS011;41970;48.774;9.280;2023-03-01T09:50:02;17.87;;;14.10;;
56102;SDS011;41970;48.774;9.280;2023-03-01T09:55:12;17.97;;;14.07;;
56102;SDS011;41970;48.774;9.280;2023-03-01T09:57:50;18.70;;;14.90;;
56102;SDS011;41970;48.774;9.280;2023-03-01T10:00:40;13.17;;;11.77;;
56102;SDS011;41970;48.774;9.280;2023-03-01T10:03:24;17.20;;;14.57;;
56102;SDS011;41970;48.774;9.280;2023-03-01T10:08:40;17.93;;;15.70;;
56102;SDS011;41970;48.774;9.280;2023-03-01T10:11:20;16.67;;;13.70;;
56102;SDS011;41970;48.774;9.280;2023-03-01T10:13:56;18.60;;;14.90;;
56102;SDS011;41970;48.774;9.280;2023-03-01T10:22:25;18.67;;;14.40;;
56102;SDS011;41970;48.774;9.280;2023-03-01T10:24:56;18.00;;;13.90;;
56102;SDS011;41970;48.774;9.280;2023-03-01T10:30:26;21.37;;;14.60;;
56102;SDS011;41970;48.774;9.280;2023-03-01T10:33:01;17.73;;;13.70;;
56102;SDS011;41970;48.774;9.280;2023-03-01T10:35:28;17.40;;;14.00;;
56102;SDS011;41970;48.774;9.280;2023-03-01T10:38:08;16.43;;;13.43;;
56102;SDS011;41970;48.774;9.280;2023-03-01T10:40:35;16.20;;;13.43;;
56102;SDS011;41970;48.774;9.280;2023-03-01T10:43:14;17.40;;;14.43;;
56102;SDS011;41970;48.774;9.280;2023-03-01T10:45:40;18.83;;;14.43;;
56102;SDS011;41970;48.774;9.280;2023-03-01T10:50:49;16.57;;;13.20;;
56102;SDS011;41970;48.774;9.280;2023-03-01T10:56:03;14.73;;;11.73;;
56102;SDS011;41970;48.774;9.280;2023-03-01T10:58:30;15.90;;;12.50;;
56102;SDS011;41970;48.774;9.280;2023-03-01T11:00:57;17.13;;;13.80;;
56102;SDS011;41970;48.774;9.280;2023-03-01T11:03:26;15.23;;;13.00;;
56102;SDS011;41970;48.774;9.280;2023-03-01T11:08:36;20.40;;;16.00;;
56102;SDS011;41970;48.774;9.280;2023-03-01T11:13:52;18.30;;;12.27;;
56102;SDS011;41970;48.774;9.280;2023-03-01T11:16:31;14.07;;;11.30;;
56102;SDS011;41970;48.774;9.280;2023-03-01T11:19:20;16.60;;;13.10;;
56102;SDS011;41970;48.774;9.280;2023-03-01T11:24:18;16.93;;;12.43;;
56102;SDS011;41970;48.774;9.280;2023-03-01T11:26:46;15.67;;;12.63;;
56102;SDS011;41970;48.774;9.280;2023-03-01T11:29:21;18.17;;;15.20;;
56102;SDS011;41970;48.774;9.280;2023-03-01T11:32:02;17.13;;;13.40;;
56102;SDS011;41970;48.774;9.280;2023-03-01T11:34:36;14.90;;;13.10;;
56102;SDS011;41970;48.774;9.280;2023-03-01T11:37:08;15.13;;;12.37;;
56102;SDS011;41970;48.774;9.280;2023-03-01T11:39:55;16.57;;;13.13;;
56102;SDS011;41970;48.774;9.280;2023-03-01T11:43:14;16.20;;;12.60;;
56102;SDS011;41970;48.774;9.280;2023-03-01T11:45:46;17.90;;;12.50;;
56102;SDS011;41970;48.774;9.280;2023-03-01T11:48:29;24.87;;;14.90;;
56102;SDS011;41970;48.774;9.280;2023-03-01T11:51:02;18.97;;;12.43;;
56102;SDS011;41970;48.774;9.280;2023-03-01T11:58:48;17.00;;;13.53;;
56102;SDS011;41970;48.774;9.280;2023-03-01T12:10:08;19.10;;;13.87;;
56102;SDS011;41970;48.774;9.280;2023-03-01T12:18:16;15.07;;;12.97;;
56102;SDS011;41970;48.774;9.280;2023-03-01T12:21:16;16.70;;;12.63;;
56102;SDS011;41970;48.774;9.280;2023-03-01T12:31:44;15.17;;;11.20;;
56102;SDS011;41970;48.774;9.280;2023-03-01T12:45:02;17.63;;;12.83;;
56102;SDS011;41970;48.774;9.280;2023-03-01T12:47:53;14.37;;;12.50;;
56102;SDS011;41970;48.774;9.280;2023-03-01T12:50:42;18.33;;;12.43;;
56102;SDS011;41970;48.774;9.280;2023-03-01T12:53:25;15.60;;;11.50;;
56102;SDS011;41970;48.774;9.280;2023-03-01T12:55:55;16.13;;;12.70;;
56102;SDS011;41970;48.774;9.280;2023-03-01T12:58:32;15.00;;;12.47;;
56102;SDS011;41970;48.774;9.280;2023-03-01T13:01:14;16.20;;;12.90;;
56102;SDS011;41970;48.774;9.280;2023-03-01T13:03:50;15.90;;;13.50;;
56102;SDS011;41970;48.774;9.280;2023-03-01T13:12:41;18.43;;;12.00;;
56102;SDS011;41970;48.774;9.280;2023-03-01T13:17:47;15.83;;;12.20;;
56102;SDS011;41970;48.774;9.280;2023-03-01T13:23:13;14.70;;;12.17;;
56102;SDS011;41970;48.774;9.280;2023-03-01T13:30:59;15.40;;;12.40;;
56102;SDS011;41970;48.774;9.280;2023-03-01T13:35:54;14.30;;;11.77;;
56102;SDS011;41970;48.774;9.280;2023-03-01T13:44:18;10.47;;;9.30;;
56102;SDS011;41970;48.774;9.280;2023-03-01T13:46:50;14.00;;;10.53;;
56102;SDS011;41970;48.774;9.280;2023-03-01T13:49:21;15.70;;;11.60;;
56102;SDS011;41970;48.774;9.280;2023-03-01T13:51:50;13.80;;;12.13;;
56102;SDS011;41970;48.774;9.280;2023-03-01T13:54:19;14.70;;;12.63;;
56102;SDS011;41970;48.774;9.280;2023-03-01T13:56:51;17.40;;;13.30;;
56102;SDS011;41970;48.774;9.280;2023-03-01T13:59:19;16.13;;;12.90;;
56102;SDS011;41970;48.774;9.280;2023-03-01T14:01:56;15.03;;;11.83;;
56102;SDS011;41970;48.774;9.280;2023-03-01T14:04:25;15.40;;;12.10;;
56102;SDS011;41970;48.774;9.280;2023-03-01T14:09:46;16.20;;;13.13;;
56102;SDS011;41970;48.774;9.280;2023-03-01T14:12:25;16.93;;;11.50;;
56102;SDS011;41970;48.774;9.280;2023-03-01T14:15:15;13.87;;;12.43;;
56102;SDS011;41970;48.774;9.280;2023-03-01T14:20:32;19.77;;;14.60;;
56102;SDS011;41970;48.774;9.280;2023-03-01T14:23:08;13.43;;;12.03;;
56102;SDS011;41970;48.774;9.280;2023-03-01T14:25:46;15.57;;;11.47;;
56102;SDS011;41970;48.774;9.280;2023-03-01T14:28:18;15.67;;;13.73;;
56102;SDS011;41970;48.774;9.280;2023-03-01T14:30:59;17.40;;;13.40;;
56102;SDS011;41970;48.774;9.280;2023-03-01T14:33:27;14.37;;;12.73;;
56102;SDS011;41970;48.774;9.280;2023-03-01T14:36:11;16.60;;;13.80;;
56102;SDS011;41970;48.774;9.280;2023-03-01T14:38:39;17.37;;;12.93;;
56102;SDS011;41970;48.774;9.280;2023-03-01T14:41:12;17.17;;;13.20;;
56102;SDS011;41970;48.774;9.280;2023-03-01T14:43:57;16.20;;;12.80;;
56102;SDS011;41970;48.774;9.280;2023-03-01T14:46:34;18.90;;;13.13;;
56102;SDS011;41970;48.774;9.280;2023-03-01T14:49:26;16.67;;;13.37;;
56102;SDS011;41970;48.774;9.280;2023-03-01T14:52:05;16.33;;;13.00;;
56102;SDS011;41970;48.774;9.280;2023-03-01T14:54:42;16.10;;;13.57;;
56102;SDS011;41970;48.774;9.280;2023-03-01T14:57:25;15.73;;;12.10;;
56102;SDS011;41970;48.774;9.280;2023-03-01T14:59:52;16.40;;;13.00;;
56102;SDS011;41970;48.774;9.280;2023-03-01T15:02:20;15.77;;;12.17;;
56102;SDS011;41970;48.774;9.280;2023-03-01T15:04:52;15.23;;;12.03;;
56102;SDS011;41970;48.774;9.280;2023-03-01T15:07:29;15.17;;;12.40;;
56102;SDS011;41970;48.774;9.280;2023-03-01T15:09:59;15.20;;;12.10;;
56102;SDS011;41970;48.774;9.280;2023-03-01T15:14:55;17.43;;;12.20;;
56102;SDS011;41970;48.774;9.280;2023-03-01T15:17:31;16.30;;;12.43;;
56102;SDS011;41970;48.774;9.280;2023-03-01T15:20:03;15.90;;;12.10;;
56102;SDS011;41970;48.774;9.280;2023-03-01T15:22:31;15.03;;;12.87;;
56102;SDS011;41970;48.774;9.280;2023-03-01T15:24:57;16.30;;;13.17;;
56102;SDS011;41970;48.774;9.280;2023-03-01T15:27:24;20.60;;;12.53;;
56102;SDS011;41970;48.774;9.280;2023-03-01T15:30:00;15.80;;;13.33;;
56102;SDS011;41970;48.774;9.280;2023-03-01T15:34:58;18.87;;;13.40;;
56102;SDS011;41970;48.774;9.280;2023-03-01T15:37:47;17.27;;;12.87;;
56102;SDS011;41970;48.774;9.280;2023-03-01T15:40:32;17.10;;;14.00;;
56102;SDS011;41970;48.774;9.280;2023-03-01T15:42:58;15.63;;;11.90;;
56102;SDS011;41970;48.774;9.280;2023-03-01T15:45:29;14.30;;;12.17;;
56102;SDS011;41970;48.774;9.280;2023-03-01T15:48:02;14.67;;;12.67;;
56102;SDS011;41970;48.774;9.280;2023-03-01T15:50:31;16.40;;;13.00;;
56102;SDS011;41970;48.774;9.280;2023-03-01T15:52:59;18.93;;;13.17;;
56102;SDS011;41970;48.774;9.280;2023-03-01T15:55:27;21.50;;;14.53;;
56102;SDS011;41970;48.774;9.280;2023-03-01T15:58:03;15.73;;;13.50;;
56102;SDS011;41970;48.774;9.280;2023-03-01T16:00:31;18.73;;;12.80;;
56102;SDS011;41970;48.774;9.280;2023-03-01T16:02:57;16.97;;;12.70;;
56102;SDS011;41970;48.774;9.280;2023-03-01T16:05:25;19.50;;;14.40;;
56102;SDS011;41970;48.774;9.280;2023-03-01T16:07:52;18.03;;;13.50;;
56102;SDS011;41970;48.774;9.280;2023-03-01T16:10:18;16.00;;;12.90;;
56102;SDS011;41970;48.774;9.280;2023-03-01T16:12:44;18.30;;;14.30;;
56102;SDS011;41970;48.774;9.280;2023-03-01T16:15:13;18.33;;;14.27;;
56102;SDS011;41970;48.774;9.280;2023-03-01T16:17:47;20.00;;;13.80;;
56102;SDS011;41970;48.774;9.280;2023-03-01T16:20:13;19.00;;;12.70;;
56102;SDS011;41970;48.774;9.280;2023-03-01T16:22:41;15.90;;;12.60;;
56102;SDS011;41970;48.774;9.280;2023-03-01T16:25:09;15.13;;;12.83;;
56102;SDS011;41970;48.774;9.280;2023-03-01T16:27:41;16.30;;;12.07;;
56102;SDS011;41970;48.774;9.280;2023-03-01T16:30:09;22.60;;;13.97;;
56102;SDS011;41970;48.774;9.280;2023-03-01T16:32:40;16.13;;;12.77;;
56102;SDS011;41970;48.774;9.280;2023-03-01T16:35:07;15.60;;;13.90;;
56102;SDS011;41970;48.774;9.280;2023-03-01T16:37:35;19.70;;;13.83;;
56102;SDS011;41970;48.774;9.280;2023-03-01T16:40:02;15.57;;;11.90;;